Time;durP1;ratioP1;P1;durP2;ratioP2;P2;SDS_P1;SDS_P2;PMS_P1;PMS_P2;Temp;Humidity;BMP_temperature;BMP_pressure;BME280_temperature;BME280_humidity;BME280_pressure;Samples;Min_cycle;Max_cycle;Signal;HPM_P1;HPM_P2
2022/11/10 00:00:17;;;;;;;4.55;2.60;;;;;;;;;;5072784;28;20434;-66
2022/11/10 00:02:43;;;;;;;5.55;2.75;;;;;;;;;;5073020;28;20463;-66
2022/11/10 00:05:09;;;;;;;4.90;2.60;;;;;;;;;;5072716;28;20036;-64
2022/11/10 00:07:35;;;;;;;5.63;3.05;;;;;;;;;;5072624;28;20471;-66
2022/11/10 00:10:00;;;;;;;4.47;3.30;;;;;;;;;;5072633;28;20028;-66
2022/11/10 00:12:26;;;;;;;5.50;3.15;;;;;;;;;;5072745;28;20464;-67
2022/11/10 00:17:36;;;;;;;5.53;2.72;;;;;;;;;;5072706;28;20027;-66
2022/11/10 00:20:02;;;;;;;5.18;2.58;;;;;;;;;;5072689;28;20483;-66
2022/11/10 00:22:27;;;;;;;6.28;2.53;;;;;;;;;;5072608;28;20032;-66
2022/11/10 00:24:53;;;;;;;4.85;2.58;;;;;;;;;;5072353;28;20021;-66
2022/11/10 00:27:18;;;;;;;5.35;2.58;;;;;;;;;;5072462;28;20106;-66
2022/11/10 00:29:44;;;;;;;4.18;2.25;;;;;;;;;;5072570;28;20490;-66
2022/11/10 00:32:10;;;;;;;6.60;2.30;;;;;;;;;;5072477;28;20107;-65
2022/11/10 00:34:35;;;;;;;2.45;1.50;;;;;;;;;;5072597;28;20028;-66
2022/11/10 00:37:01;;;;;;;5.55;1.67;;;;;;;;;;5072381;28;20024;-66
2022/11/10 00:39:27;;;;;;;4.72;1.58;;;;;;;;;;5071979;28;20044;-66
2022/11/10 00:41:53;;;;;;;4.78;1.67;;;;;;;;;;5072275;28;20494;-65
2022/11/10 00:44:19;;;;;;;5.07;1.52;;;;;;;;;;5072416;28;20025;-66
2022/11/10 00:46:44;;;;;;;4.78;1.45;;;;;;;;;;5072357;28;20078;-66
2022/11/10 00:49:10;;;;;;;4.18;1.52;;;;;;;;;;5072241;28;20027;-66
2022/11/10 00:51:36;;;;;;;3.35;1.40;;;;;;;;;;5072317;28;20096;-65
2022/11/10 00:54:02;;;;;;;7.85;2.47;;;;;;;;;;5072136;28;20029;-66
2022/11/10 00:56:27;;;;;;;3.30;1.42;;;;;;;;;;5072314;28;20033;-64
2022/11/10 00:58:53;;;;;;;5.40;1.55;;;;;;;;;;5072262;28;20025;-65
2022/11/10 01:01:20;;;;;;;3.70;1.45;;;;;;;;;;5072115;28;20064;-67
2022/11/10 01:03:46;;;;;;;3.42;1.98;;;;;;;;;;5074888;28;20028;-66
2022/11/10 01:06:14;;;;;;;4.00;1.40;;;;;;;;;;5076388;28;20028;-67
2022/11/10 01:08:41;;;;;;;3.90;1.50;;;;;;;;;;5076103;28;20500;-66
2022/11/10 01:11:19;;;;;;;4.90;1.40;;;;;;;;;;5075984;28;20411;-65
2022/11/10 01:13:45;;;;;;;5.05;1.73;;;;;;;;;;5076409;28;20032;-65
2022/11/10 01:16:14;;;;;;;5.38;1.80;;;;;;;;;;5076085;28;20055;-66
2022/11/10 01:18:40;;;;;;;4.35;1.58;;;;;;;;;;5076146;28;20078;-68
2022/11/10 01:21:06;;;;;;;3.22;1.50;;;;;;;;;;5075570;28;20033;-66
2022/11/10 01:23:32;;;;;;;3.10;1.50;;;;;;;;;;5076021;28;20032;-65
2022/11/10 01:25:59;;;;;;;7.22;1.70;;;;;;;;;;5075938;28;20146;-67
2022/11/10 01:28:25;;;;;;;3.40;1.40;;;;;;;;;;5075825;28;20036;-66
2022/11/10 01:31:02;;;;;;;4.05;1.60;;;;;;;;;;5075848;28;20033;-65
2022/11/10 01:33:28;;;;;;;3.53;1.40;;;;;;;;;;5075439;28;20542;-65
2022/11/10 01:35:54;;;;;;;5.35;1.60;;;;;;;;;;5075477;28;20105;-65
2022/11/10 01:38:20;;;;;;;5.13;1.48;;;;;;;;;;5075641;28;20052;-66
2022/11/10 01:40:46;;;;;;;4.28;1.55;;;;;;;;;;5075446;28;20094;-65
2022/11/10 01:43:12;;;;;;;5.43;1.80;;;;;;;;;;5075449;28;20540;-67
2022/11/10 01:45:59;;;;;;;3.95;1.67;;;;;;;;;;5075521;28;20035;-65
2022/11/10 01:48:35;;;;;;;3.55;1.35;;;;;;;;;;5075533;28;20028;-66
2022/11/10 01:51:10;;;;;;;6.10;1.90;;;;;;;;;;5075307;28;20028;-66
2022/11/10 01:53:40;;;;;;;8.95;1.48;;;;;;;;;;5075366;28;20028;-67
2022/11/10 01:56:09;;;;;;;3.40;1.55;;;;;;;;;;5075389;28;20021;-65
2022/11/10 01:58:39;;;;;;;4.63;1.55;;;;;;;;;;5075327;28;20067;-66
2022/11/10 02:01:08;;;;;;;6.75;1.77;;;;;;;;;;5075015;28;20056;-66
2022/11/10 02:03:42;;;;;;;8.73;1.40;;;;;;;;;;5075174;28;20029;-66
2022/11/10 02:06:09;;;;;;;3.80;1.33;;;;;;;;;;5075026;28;20390;-66
2022/11/10 02:08:36;;;;;;;3.20;1.40;;;;;;;;;;5075168;28;20124;-67
2022/11/10 02:11:01;;;;;;;4.35;1.40;;;;;;;;;;5075078;28;20035;-67
2022/11/10 02:13:27;;;;;;;5.07;1.52;;;;;;;;;;5074680;28;20462;-66
2022/11/10 02:15:53;;;;;;;3.35;1.48;;;;;;;;;;5074146;28;20025;-64
2022/11/10 02:18:18;;;;;;;4.25;1.60;;;;;;;;;;5075058;28;20029;-66
2022/11/10 02:20:45;;;;;;;6.32;1.73;;;;;;;;;;5074988;28;20025;-67
2022/11/10 02:23:30;;;;;;;6.32;1.70;;;;;;;;;;5075049;28;20528;-67
2022/11/10 02:25:57;;;;;;;4.68;1.60;;;;;;;;;;5074716;28;20035;-67
2022/11/10 02:28:23;;;;;;;4.28;1.70;;;;;;;;;;5075060;28;20033;-67
2022/11/10 02:30:50;;;;;;;5.68;1.45;;;;;;;;;;5074558;28;20033;-67
2022/11/10 02:33:18;;;;;;;6.40;1.60;;;;;;;;;;5059036;28;20028;-67
2022/11/10 02:35:47;;;;;;;4.47;1.77;;;;;;;;;;5054612;28;20476;-66
2022/11/10 02:38:13;;;;;;;8.13;1.70;;;;;;;;;;5054758;28;20037;-67
2022/11/10 02:40:39;;;;;;;5.45;1.40;;;;;;;;;;5054506;28;20526;-66
2022/11/10 02:43:07;;;;;;;6.38;1.60;;;;;;;;;;5054636;28;20107;-67
2022/11/10 02:45:32;;;;;;;7.68;1.73;;;;;;;;;;5054731;28;20506;-67
2022/11/10 02:47:58;;;;;;;6.07;2.00;;;;;;;;;;5054269;28;20064;-67
2022/11/10 02:50:23;;;;;;;5.97;1.90;;;;;;;;;;5054499;28;20163;-67
2022/11/10 02:52:49;;;;;;;5.50;1.50;;;;;;;;;;5054573;28;20329;-68
2022/11/10 02:55:14;;;;;;;7.28;1.65;;;;;;;;;;5054230;28;20464;-67
2022/11/10 02:57:40;;;;;;;5.28;1.42;;;;;;;;;;5062215;28;20140;-67
2022/11/10 03:00:06;;;;;;;3.42;1.60;;;;;;;;;;5071155;28;20029;-67
2022/11/10 03:02:32;;;;;;;5.65;2.15;;;;;;;;;;5073543;28;20024;-66
2022/11/10 03:04:57;;;;;;;6.75;1.73;;;;;;;;;;5073756;28;20040;-66
2022/11/10 03:07:23;;;;;;;5.93;1.52;;;;;;;;;;5073613;28;20033;-68
2022/11/10 03:09:48;;;;;;;5.80;2.00;;;;;;;;;;5073638;28;20058;-67
2022/11/10 03:12:13;;;;;;;3.45;1.67;;;;;;;;;;5073553;28;20082;-67
2022/11/10 03:14:39;;;;;;;4.47;1.70;;;;;;;;;;5073669;28;20116;-68
2022/11/10 03:17:04;;;;;;;5.28;1.60;;;;;;;;;;5073256;28;20067;-67
2022/11/10 03:19:30;;;;;;;5.00;1.65;;;;;;;;;;5073609;28;20368;-66
2022/11/10 03:21:56;;;;;;;4.40;1.50;;;;;;;;;;5073377;28;20052;-66
2022/11/10 03:24:21;;;;;;;6.20;1.50;;;;;;;;;;5073343;28;20063;-67
2022/11/10 03:26:47;;;;;;;8.85;2.42;;;;;;;;;;5073412;28;20023;-67
2022/11/10 03:29:12;;;;;;;4.57;1.67;;;;;;;;;;5073963;28;20064;-67
2022/11/10 03:31:38;;;;;;;4.57;1.70;;;;;;;;;;5073342;28;20024;-67
2022/11/10 03:34:03;;;;;;;3.10;1.40;;;;;;;;;;5073771;28;20379;-67
2022/11/10 03:36:29;;;;;;;3.80;1.30;;;;;;;;;;5073679;28;20029;-67
2022/11/10 03:38:55;;;;;;;6.32;2.08;;;;;;;;;;5073622;28;20122;-67
2022/11/10 03:41:21;;;;;;;5.03;1.55;;;;;;;;;;5073312;28;20048;-66
2022/11/10 03:43:48;;;;;;;10.70;1.63;;;;;;;;;;5073614;28;20024;-67
2022/11/10 03:46:13;;;;;;;5.07;2.00;;;;;;;;;;5073103;28;20025;-65
2022/11/10 03:48:39;;;;;;;8.45;1.73;;;;;;;;;;5073568;28;20033;-68
2022/11/10 03:51:04;;;;;;;7.57;1.75;;;;;;;;;;5073420;28;20117;-67
2022/11/10 03:53:30;;;;;;;7.07;1.60;;;;;;;;;;5073409;28;20376;-66
2022/11/10 03:55:59;;;;;;;5.97;1.90;;;;;;;;;;5073318;28;20459;-67
2022/11/10 03:58:24;;;;;;;4.20;1.63;;;;;;;;;;5073186;28;20048;-65
2022/11/10 04:00:53;;;;;;;6.30;3.13;;;;;;;;;;5071673;28;20479;-65
2022/11/10 04:03:18;;;;;;;5.47;1.50;;;;;;;;;;5073142;28;20107;-65
2022/11/10 04:15:40;;;;;;;5.97;1.55;;;;;;;;;;5073334;28;20108;-66
2022/11/10 04:16:41;;;;;;;6.07;1.50;;;;;;;;;;5072848;28;20082;-67
2022/11/10 04:19:07;;;;;;;5.90;1.83;;;;;;;;;;5073009;28;20028;-66
2022/11/10 04:21:32;;;;;;;5.10;2.25;;;;;;;;;;5072924;28;20368;-65
2022/11/10 04:23:58;;;;;;;3.35;1.88;;;;;;;;;;5072984;28;20085;-66
2022/11/10 04:26:29;;;;;;;8.65;1.92;;;;;;;;;;5072835;28;20025;-67
2022/11/10 04:29:05;;;;;;;4.32;1.75;;;;;;;;;;5072874;28;20115;-64
2022/11/10 04:31:34;;;;;;;3.95;1.80;;;;;;;;;;5072526;28;20057;-66
2022/11/10 04:34:00;;;;;;;6.10;1.85;;;;;;;;;;5072704;28;20020;-66
2022/11/10 04:36:28;;;;;;;8.23;1.98;;;;;;;;;;5072652;28;20459;-65
2022/11/10 04:38:54;;;;;;;7.00;1.75;;;;;;;;;;5072315;28;20028;-65
2022/11/10 04:41:21;;;;;;;7.88;2.83;;;;;;;;;;5072457;28;20079;-65
2022/11/10 04:43:46;;;;;;;6.57;2.00;;;;;;;;;;5072789;28;20027;-65
2022/11/10 04:46:24;;;;;;;12.18;2.30;;;;;;;;;;5072463;28;20510;-65
2022/11/10 04:48:50;;;;;;;7.90;2.13;;;;;;;;;;5072686;28;20352;-67
2022/11/10 04:51:17;;;;;;;6.55;1.73;;;;;;;;;;5072613;28;20077;-65
2022/11/10 04:53:42;;;;;;;7.80;2.25;;;;;;;;;;5072715;28;20024;-66
2022/11/10 04:56:19;;;;;;;4.70;1.80;;;;;;;;;;5072660;28;20032;-64
2022/11/10 04:58:45;;;;;;;8.38;2.10;;;;;;;;;;5072219;28;20483;-65
2022/11/10 05:01:16;;;;;;;5.65;1.98;;;;;;;;;;5072496;28;20125;-66
2022/11/10 05:03:43;;;;;;;5.43;1.80;;;;;;;;;;5072528;28;20162;-64
2022/11/10 05:06:09;;;;;;;8.07;2.33;;;;;;;;;;5072551;28;20444;-66
2022/11/10 05:08:36;;;;;;;5.90;1.80;;;;;;;;;;5072397;28;20025;-65
2022/11/10 05:11:02;;;;;;;7.50;2.17;;;;;;;;;;5072434;28;20109;-65
2022/11/10 05:13:27;;;;;;;7.65;2.10;;;;;;;;;;5072085;28;20455;-64
2022/11/10 05:15:53;;;;;;;8.05;1.70;;;;;;;;;;5072277;28;20074;-65
2022/11/10 05:18:18;;;;;;;7.07;2.78;;;;;;;;;;5072369;28;20028;-66
2022/11/10 05:20:44;;;;;;;5.60;2.15;;;;;;;;;;5072102;28;20126;-66
2022/11/10 05:25:53;;;;;;;6.35;1.90;;;;;;;;;;5072511;28;20023;-65
2022/11/10 05:28:19;;;;;;;7.20;2.38;;;;;;;;;;5072117;28;20029;-67
2022/11/10 05:30:44;;;;;;;6.05;1.92;;;;;;;;;;5072495;28;20025;-66
2022/11/10 05:33:10;;;;;;;4.57;1.77;;;;;;;;;;5072063;28;20052;-66
2022/11/10 05:35:36;;;;;;;7.60;2.40;;;;;;;;;;5072237;28;20028;-67
2022/11/10 05:38:02;;;;;;;6.00;2.30;;;;;;;;;;5072167;28;20104;-66
2022/11/10 05:40:28;;;;;;;7.53;1.90;;;;;;;;;;5071815;28;20044;-67
2022/11/10 05:42:53;;;;;;;7.30;2.15;;;;;;;;;;5071713;28;20021;-66
2022/11/10 05:45:21;;;;;;;8.15;2.72;;;;;;;;;;5072105;28;20025;-67
2022/11/10 05:47:47;;;;;;;4.93;1.85;;;;;;;;;;5072059;28;20506;-67
2022/11/10 05:50:13;;;;;;;8.52;2.63;;;;;;;;;;5073579;28;20021;-67
2022/11/10 05:52:42;;;;;;;6.10;2.15;;;;;;;;;;5075680;28;20467;-67
2022/11/10 05:55:09;;;;;;;6.57;1.90;;;;;;;;;;5075768;28;20103;-66
2022/11/10 05:57:34;;;;;;;10.57;2.40;;;;;;;;;;5075285;28;20106;-66
2022/11/10 06:00:00;;;;;;;8.10;2.35;;;;;;;;;;5075611;28;20540;-67
2022/11/10 06:02:25;;;;;;;9.27;2.35;;;;;;;;;;5075485;28;20537;-66
2022/11/10 06:04:51;;;;;;;8.32;2.03;;;;;;;;;;5075341;28;20094;-67
2022/11/10 06:07:16;;;;;;;8.02;4.03;;;;;;;;;;5075357;28;20052;-66
2022/11/10 06:09:42;;;;;;;8.00;2.40;;;;;;;;;;5075367;28;20034;-66
2022/11/10 06:12:07;;;;;;;9.30;2.42;;;;;;;;;;5074687;28;20032;-65
2022/11/10 06:14:33;;;;;;;6.00;2.10;;;;;;;;;;5074992;28;20028;-65
2022/11/10 06:16:58;;;;;;;6.82;2.30;;;;;;;;;;5075187;28;20112;-66
2022/11/10 06:19:24;;;;;;;7.03;2.42;;;;;;;;;;5075282;28;20024;-66
2022/11/10 06:21:49;;;;;;;11.57;2.22;;;;;;;;;;5075193;28;20033;-67
2022/11/10 06:24:15;;;;;;;5.68;2.05;;;;;;;;;;5074929;28;20056;-67
2022/11/10 06:26:40;;;;;;;5.43;1.98;;;;;;;;;;5074556;28;20052;-66
2022/11/10 06:29:06;;;;;;;6.00;2.45;;;;;;;;;;5074582;28;20028;-67
2022/11/10 06:31:31;;;;;;;5.45;2.10;;;;;;;;;;5074696;28;20032;-67
2022/11/10 06:33:56;;;;;;;7.35;2.70;;;;;;;;;;5074603;28;20020;-66
2022/11/10 06:36:22;;;;;;;8.25;2.55;;;;;;;;;;5074578;28;20028;-66
2022/11/10 06:38:47;;;;;;;6.88;2.53;;;;;;;;;;5074721;28;20479;-66
2022/11/10 06:41:13;;;;;;;12.65;2.88;;;;;;;;;;5074109;28;20048;-66
2022/11/10 06:43:38;;;;;;;6.70;2.25;;;;;;;;;;5074786;28;20024;-67
2022/11/10 06:46:04;;;;;;;9.68;3.63;;;;;;;;;;5074796;28;20025;-67
2022/11/10 06:48:30;;;;;;;8.27;2.58;;;;;;;;;;5074600;28;20462;-67
2022/11/10 06:50:59;;;;;;;15.13;3.03;;;;;;;;;;5074607;28;20054;-67
2022/11/10 06:53:25;;;;;;;8.52;2.90;;;;;;;;;;5074517;28;20028;-67
2022/11/10 06:55:50;;;;;;;7.35;3.05;;;;;;;;;;5073933;28;20028;-65
2022/11/10 06:58:16;;;;;;;6.57;2.40;;;;;;;;;;5074402;28;20032;-67
2022/11/10 07:00:41;;;;;;;5.88;2.80;;;;;;;;;;5073843;28;20033;-66
2022/11/10 07:03:11;;;;;;;8.55;2.92;;;;;;;;;;5074456;28;20060;-67
2022/11/10 07:05:36;;;;;;;10.75;2.33;;;;;;;;;;5073071;28;20032;-65
2022/11/10 07:08:12;;;;;;;7.38;2.28;;;;;;;;;;5074181;28;20047;-67
2022/11/10 07:10:38;;;;;;;8.10;2.30;;;;;;;;;;5073962;28;20551;-68
2022/11/10 07:13:04;;;;;;;9.95;2.40;;;;;;;;;;5074073;28;20100;-66
2022/11/10 07:15:30;;;;;;;5.90;2.00;;;;;;;;;;5074208;28;20048;-67
2022/11/10 07:17:56;;;;;;;7.80;2.05;;;;;;;;;;5073662;28;20029;-67
2022/11/10 07:20:21;;;;;;;7.43;2.20;;;;;;;;;;5074003;28;20081;-67
2022/11/10 07:22:47;;;;;;;7.28;1.90;;;;;;;;;;5074160;28;20029;-66
2022/11/10 07:25:13;;;;;;;10.98;2.05;;;;;;;;;;5073792;28;20036;-67
2022/11/10 07:27:38;;;;;;;7.95;1.90;;;;;;;;;;5073790;28;20103;-68
2022/11/10 07:30:05;;;;;;;4.85;1.75;;;;;;;;;;5073653;28;20448;-68
2022/11/10 07:32:31;;;;;;;9.25;2.00;;;;;;;;;;5073297;28;20028;-67
2022/11/10 07:34:56;;;;;;;10.05;1.80;;;;;;;;;;5073623;28;20081;-65
2022/11/10 07:37:22;;;;;;;8.75;1.88;;;;;;;;;;5073631;28;20036;-67
2022/11/10 07:39:47;;;;;;;8.63;2.00;;;;;;;;;;5073220;28;20137;-67
2022/11/10 07:42:13;;;;;;;6.90;1.98;;;;;;;;;;5073414;28;20024;-67
2022/11/10 07:44:38;;;;;;;10.57;2.22;;;;;;;;;;5073464;28;20028;-66
2022/11/10 07:47:04;;;;;;;6.72;2.40;;;;;;;;;;5073350;28;20021;-65
2022/11/10 07:49:29;;;;;;;6.63;2.08;;;;;;;;;;5073487;28;20052;-66
2022/11/10 07:51:55;;;;;;;7.13;2.00;;;;;;;;;;5073595;28;20028;-67
2022/11/10 07:54:20;;;;;;;7.25;2.17;;;;;;;;;;5073164;28;20427;-66
2022/11/10 07:56:46;;;;;;;5.65;1.95;;;;;;;;;;5073340;28;20032;-65
2022/11/10 07:59:12;;;;;;;8.85;2.00;;;;;;;;;;5073282;28;20467;-67
2022/11/10 08:01:37;;;;;;;5.65;1.92;;;;;;;;;;5073096;28;20054;-67
2022/11/10 08:04:03;;;;;;;12.30;2.10;;;;;;;;;;5073048;28;20052;-67
2022/11/10 08:06:29;;;;;;;9.55;2.30;;;;;;;;;;5072986;28;20479;-67
2022/11/10 08:08:54;;;;;;;7.90;2.15;;;;;;;;;;5072844;28;20039;-65
2022/11/10 08:11:20;;;;;;;5.82;2.00;;;;;;;;;;5073109;28;20592;-67
2022/11/10 08:13:45;;;;;;;8.73;2.30;;;;;;;;;;5072472;28;20044;-66
2022/11/10 08:16:11;;;;;;;7.55;1.75;;;;;;;;;;5073145;28;20075;-65
2022/11/10 08:18:36;;;;;;;6.05;1.95;;;;;;;;;;5072880;28;20464;-66
2022/11/10 08:21:03;;;;;;;5.65;1.88;;;;;;;;;;5068618;28;20105;-66
2022/11/10 08:23:30;;;;;;;9.90;2.33;;;;;;;;;;5061480;28;20055;-65
2022/11/10 08:25:59;;;;;;;9.48;2.20;;;;;;;;;;5072476;28;20098;-67
2022/11/10 08:28:26;;;;;;;4.55;1.90;;;;;;;;;;5072475;28;20113;-66
2022/11/10 08:30:51;;;;;;;8.35;2.22;;;;;;;;;;5072468;28;20043;-66
2022/11/10 08:33:18;;;;;;;7.13;2.03;;;;;;;;;;5072201;28;20383;-66
2022/11/10 08:35:47;;;;;;;8.98;2.47;;;;;;;;;;5072449;28;20025;-66
2022/11/10 08:38:14;;;;;;;8.48;2.25;;;;;;;;;;5072116;28;20029;-66
2022/11/10 08:40:41;;;;;;;7.72;2.03;;;;;;;;;;5072219;28;20450;-65
2022/11/10 08:43:07;;;;;;;5.40;1.73;;;;;;;;;;5072135;28;20503;-67
2022/11/10 08:45:39;;;;;;;9.90;2.40;;;;;;;;;;5070952;28;20059;-67
2022/11/10 08:48:08;;;;;;;8.20;2.00;;;;;;;;;;5072205;28;20112;-65
2022/11/10 08:50:34;;;;;;;4.32;1.70;;;;;;;;;;5071711;28;20498;-67
2022/11/10 08:53:01;;;;;;;9.45;2.13;;;;;;;;;;5072086;28;20029;-67
2022/11/10 08:55:27;;;;;;;6.35;2.13;;;;;;;;;;5072204;28;20029;-66
2022/11/10 08:57:58;;;;;;;7.45;2.03;;;;;;;;;;5072439;28;20107;-67
2022/11/10 09:00:23;;;;;;;10.00;2.30;;;;;;;;;;5072137;28;20021;-66
2022/11/10 09:02:49;;;;;;;9.82;2.38;;;;;;;;;;5072055;28;20134;-67
2022/11/10 09:05:14;;;;;;;8.10;2.28;;;;;;;;;;5071971;28;20031;-67
2022/11/10 09:07:44;;;;;;;13.75;2.95;;;;;;;;;;5071569;28;20017;-66
2022/11/10 09:10:10;;;;;;;7.47;2.17;;;;;;;;;;5072006;28;20537;-66
2022/11/10 09:12:36;;;;;;;6.28;2.45;;;;;;;;;;5071841;28;20032;-67
2022/11/10 09:15:02;;;;;;;5.40;2.08;;;;;;;;;;5071808;28;20027;-66
2022/11/10 09:17:27;;;;;;;4.72;2.00;;;;;;;;;;5071942;28;20025;-66
2022/11/10 09:19:53;;;;;;;6.68;2.08;;;;;;;;;;5071830;28;20020;-66
2022/11/10 09:22:18;;;;;;;5.82;2.20;;;;;;;;;;5072053;28;20391;-66
2022/11/10 09:24:44;;;;;;;6.22;2.35;;;;;;;;;;5074412;28;20032;-67
2022/11/10 09:27:10;;;;;;;9.68;2.13;;;;;;;;;;5075652;28;20111;-67
2022/11/10 09:29:35;;;;;;;8.95;2.00;;;;;;;;;;5075805;28;20023;-65
2022/11/10 09:32:01;;;;;;;9.75;3.20;;;;;;;;;;5075352;28;20028;-67
2022/11/10 09:34:26;;;;;;;10.00;3.00;;;;;;;;;;5075513;28;20035;-65
2022/11/10 09:36:52;;;;;;;8.32;3.20;;;;;;;;;;5074181;28;20024;-66
2022/11/10 09:39:18;;;;;;;10.23;2.55;;;;;;;;;;5075407;28;20021;-66
2022/11/10 09:41:44;;;;;;;9.13;3.28;;;;;;;;;;5075547;28;20486;-67
2022/11/10 09:44:17;;;;;;;5.78;3.20;;;;;;;;;;5075681;28;20035;-66
2022/11/10 09:46:56;;;;;;;10.93;3.20;;;;;;;;;;5075516;28;20033;-65
2022/11/10 09:49:34;;;;;;;7.40;2.83;;;;;;;;;;5075165;28;20032;-66
2022/11/10 09:52:01;;;;;;;14.48;3.15;;;;;;;;;;5075536;28;20039;-66
2022/11/10 09:54:50;;;;;;;8.35;2.88;;;;;;;;;;5075402;28;20451;-66
2022/11/10 09:57:19;;;;;;;8.80;2.50;;;;;;;;;;5075166;28;20062;-66
2022/11/10 09:59:44;;;;;;;7.18;2.80;;;;;;;;;;5075354;28;20070;-66
2022/11/10 10:02:30;;;;;;;11.60;3.85;;;;;;;;;;5075231;28;20044;-67
2022/11/10 10:05:19;;;;;;;11.70;3.05;;;;;;;;;;5074583;28;20502;-66
2022/11/10 10:07:55;;;;;;;9.85;3.17;;;;;;;;;;5075059;28;20028;-66
2022/11/10 10:10:29;;;;;;;11.98;3.40;;;;;;;;;;5075026;28;20027;-67
2022/11/10 10:13:36;;;;;;;9.50;2.80;;;;;;;;;;5074985;28;20103;-67
2022/11/10 10:16:12;;;;;;;9.20;3.03;;;;;;;;;;5071781;28;20043;-65
2022/11/10 10:19:15;;;;;;;6.93;2.75;;;;;;;;;;5074759;28;20028;-66
2022/11/10 10:21:47;;;;;;;9.57;3.10;;;;;;;;;;5075010;28;20056;-67
2022/11/10 10:24:18;;;;;;;9.48;2.70;;;;;;;;;;5074745;28;20032;-66
2022/11/10 10:26:53;;;;;;;6.45;2.53;;;;;;;;;;5074508;28;20429;-66
2022/11/10 10:29:29;;;;;;;8.35;2.67;;;;;;;;;;5074441;28;20521;-67
2022/11/10 10:31:59;;;;;;;6.82;3.10;;;;;;;;;;5074061;28;20061;-64
2022/11/10 10:34:33;;;;;;;7.72;2.25;;;;;;;;;;5074575;28;20039;-66
2022/11/10 10:36:59;;;;;;;6.75;2.20;;;;;;;;;;5073769;28;20045;-67
2022/11/10 10:39:35;;;;;;;10.10;2.80;;;;;;;;;;5073860;28;20079;-67
2022/11/10 10:42:00;;;;;;;7.47;2.03;;;;;;;;;;5074416;28;20028;-67
2022/11/10 10:44:26;;;;;;;9.00;2.22;;;;;;;;;;5074393;28;20027;-67
2022/11/10 10:46:55;;;;;;;13.57;2.20;;;;;;;;;;5074115;28;20341;-65
2022/11/10 10:49:27;;;;;;;6.47;2.43;;;;;;;;;;5074098;28;20451;-67
2022/11/10 10:52:10;;;;;;;10.30;2.50;;;;;;;;;;5074432;28;20115;-67
2022/11/10 10:54:37;;;;;;;8.70;2.78;;;;;;;;;;5074261;28;20097;-66
2022/11/10 10:57:22;;;;;;;8.00;2.25;;;;;;;;;;5073825;28;20111;-66
2022/11/10 10:59:49;;;;;;;6.32;2.40;;;;;;;;;;5074174;28;20430;-66
2022/11/10 11:02:30;;;;;;;6.53;2.50;;;;;;;;;;5073939;28;20020;-67
2022/11/10 11:05:16;;;;;;;8.20;2.28;;;;;;;;;;5073921;28;20501;-65
2022/11/10 11:07:54;;;;;;;7.00;2.63;;;;;;;;;;5073854;28;20433;-66
2022/11/10 11:10:22;;;;;;;9.88;2.50;;;;;;;;;;5073604;28;20529;-67
2022/11/10 11:12:47;;;;;;;5.05;2.10;;;;;;;;;;5073994;28;20403;-66
2022/11/10 11:15:25;;;;;;;8.25;2.10;;;;;;;;;;5073676;28;20029;-68
2022/11/10 11:17:58;;;;;;;9.48;2.45;;;;;;;;;;5073778;28;20116;-68
2022/11/10 11:20:52;;;;;;;4.78;2.03;;;;;;;;;;5073636;28;20121;-67
2022/11/10 11:23:33;;;;;;;6.63;2.22;;;;;;;;;;5072158;28;20467;-67
2022/11/10 11:26:21;;;;;;;8.85;2.22;;;;;;;;;;5073683;28;20104;-67
2022/11/10 11:29:18;;;;;;;7.65;2.67;;;;;;;;;;5073516;28;20025;-68
2022/11/10 11:32:01;;;;;;;10.50;2.25;;;;;;;;;;5070050;28;20025;-67
2022/11/10 11:34:43;;;;;;;12.43;2.55;;;;;;;;;;5053570;28;20028;-68
2022/11/10 11:37:36;;;;;;;9.82;2.40;;;;;;;;;;5053309;28;20115;-69
2022/11/10 11:40:20;;;;;;;9.20;2.08;;;;;;;;;;5053332;28;20045;-68
2022/11/10 11:42:55;;;;;;;7.13;1.77;;;;;;;;;;5053354;28;20032;-67
2022/11/10 11:45:32;;;;;;;7.32;2.20;;;;;;;;;;5053068;28;20025;-67
2022/11/10 11:48:18;;;;;;;7.88;2.38;;;;;;;;;;5052182;28;20025;-68
2022/11/10 11:50:56;;;;;;;9.98;2.38;;;;;;;;;;5053243;28;20029;-67
2022/11/10 11:53:24;;;;;;;11.77;2.10;;;;;;;;;;5053149;28;20095;-67
2022/11/10 11:56:31;;;;;;;11.38;2.50;;;;;;;;;;5053051;28;20033;-68
2022/11/10 11:59:21;;;;;;;6.70;2.00;;;;;;;;;;5049511;28;20041;-66
2022/11/10 12:02:14;;;;;;;12.30;2.22;;;;;;;;;;5052898;28;20537;-66
2022/11/10 12:04:58;;;;;;;7.32;2.33;;;;;;;;;;5052976;28;20498;-67
2022/11/10 12:07:26;;;;;;;5.25;2.00;;;;;;;;;;5052552;28;20029;-68
2022/11/10 12:10:24;;;;;;;4.68;2.10;;;;;;;;;;5052891;28;20066;-68
2022/11/10 12:13:14;;;;;;;5.40;1.90;;;;;;;;;;5052748;28;20468;-67
2022/11/10 12:16:19;;;;;;;7.65;1.75;;;;;;;;;;5052612;28;20029;-68
2022/11/10 12:18:53;;;;;;;10.25;2.67;;;;;;;;;;5030774;28;20192;-68
2022/11/10 12:21:47;;;;;;;10.18;2.00;;;;;;;;;;5030515;28;20648;-67
2022/11/10 12:24:32;;;;;;;9.35;2.22;;;;;;;;;;5030343;28;20072;-67
2022/11/10 12:27:06;;;;;;;6.43;2.22;;;;;;;;;;5030088;28;20444;-68
2022/11/10 12:29:52;;;;;;;8.15;2.10;;;;;;;;;;5030275;28;20171;-68
2022/11/10 12:32:38;;;;;;;7.45;2.35;;;;;;;;;;5037518;28;20230;-67
2022/11/10 12:35:30;;;;;;;7.32;2.35;;;;;;;;;;5049993;28;20091;-67
2022/11/10 12:38:11;;;;;;;8.50;2.75;;;;;;;;;;5045142;28;20041;-67
2022/11/10 12:40:47;;;;;;;10.38;2.30;;;;;;;;;;5049998;28;20045;-67
2022/11/10 12:43:29;;;;;;;9.27;2.55;;;;;;;;;;5049799;28;20072;-67
2022/11/10 12:45:59;;;;;;;8.30;2.33;;;;;;;;;;5050068;28;20025;-67
2022/11/10 12:48:32;;;;;;;6.25;1.92;;;;;;;;;;5050038;28;20037;-67
2022/11/10 12:51:20;;;;;;;8.88;2.47;;;;;;;;;;5049742;28;20041;-67
2022/11/10 12:53:47;;;;;;;11.55;2.15;;;;;;;;;;5050201;28;20029;-68
2022/11/10 12:56:19;;;;;;;14.27;2.40;;;;;;;;;;5051748;28;20049;-67
2022/11/10 12:58:44;;;;;;;9.55;3.00;;;;;;;;;;5053051;28;20017;-66
2022/11/10 13:01:18;;;;;;;10.57;2.35;;;;;;;;;;5055959;28;20028;-67
2022/11/10 13:03:57;;;;;;;8.90;2.65;;;;;;;;;;5055827;28;20086;-68
2022/11/10 13:06:29;;;;;;;9.40;2.80;;;;;;;;;;5056185;28;20025;-68
2022/11/10 13:08:55;;;;;;;10.32;2.42;;;;;;;;;;5055777;28;20047;-67
2022/11/10 13:11:31;;;;;;;8.00;2.72;;;;;;;;;;5056226;28;20024;-68
2022/11/10 13:13:59;;;;;;;8.80;2.47;;;;;;;;;;5056232;28;20033;-68
2022/11/10 13:16:39;;;;;;;6.95;2.42;;;;;;;;;;5056155;28;20029;-67
2022/11/10 13:19:08;;;;;;;9.93;2.50;;;;;;;;;;5055807;28;20083;-67
2022/11/10 13:21:49;;;;;;;10.20;2.38;;;;;;;;;;5055940;28;20055;-66
2022/11/10 13:24:36;;;;;;;7.40;2.58;;;;;;;;;;5056015;28;20056;-66
2022/11/10 13:27:08;;;;;;;7.38;2.80;;;;;;;;;;5055378;28;20028;-67
2022/11/10 13:29:46;;;;;;;8.00;2.50;;;;;;;;;;5071523;28;20107;-66
2022/11/10 13:32:14;;;;;;;7.43;2.70;;;;;;;;;;5075904;28;20059;-67
2022/11/10 13:34:44;;;;;;;8.13;2.60;;;;;;;;;;5075893;28;20029;-68
2022/11/10 13:37:28;;;;;;;6.47;2.47;;;;;;;;;;5075740;28;20094;-67
2022/11/10 13:40:15;;;;;;;10.48;3.10;;;;;;;;;;5075625;28;20052;-67
2022/11/10 13:42:43;;;;;;;12.05;3.42;;;;;;;;;;5075618;28;20024;-67
2022/11/10 13:45:30;;;;;;;8.00;2.75;;;;;;;;;;5075415;28;20071;-67
2022/11/10 13:48:16;;;;;;;6.22;2.40;;;;;;;;;;5075688;28;20059;-66
2022/11/10 13:51:10;;;;;;;10.93;2.88;;;;;;;;;;5053330;28;20037;-65
2022/11/10 13:53:54;;;;;;;10.07;2.78;;;;;;;;;;5053139;28;20083;-68
2022/11/10 13:56:56;;;;;;;9.73;2.92;;;;;;;;;;5051911;28;20437;-68
2022/11/10 13:59:28;;;;;;;7.90;2.80;;;;;;;;;;5052713;28;20033;-67
2022/11/10 14:02:32;;;;;;;6.97;2.90;;;;;;;;;;5051677;28;20211;-67
2022/11/10 14:05:01;;;;;;;8.63;3.10;;;;;;;;;;5052897;28;20029;-68
2022/11/10 14:07:30;;;;;;;6.53;2.85;;;;;;;;;;5051733;28;20028;-67
2022/11/10 14:10:02;;;;;;;13.77;3.25;;;;;;;;;;5052250;28;20029;-65
2022/11/10 14:12:38;;;;;;;7.93;2.80;;;;;;;;;;5052828;28;20044;-68
2022/11/10 14:15:16;;;;;;;7.28;2.88;;;;;;;;;;5050856;28;20048;-67
2022/11/10 14:17:47;;;;;;;8.60;3.10;;;;;;;;;;5050362;28;20150;-68
2022/11/10 14:20:42;;;;;;;15.18;3.28;;;;;;;;;;5050731;28;20033;-66
2022/11/10 14:23:18;;;;;;;11.38;3.50;;;;;;;;;;5050541;28;20391;-67
2022/11/10 14:25:58;;;;;;;10.75;3.30;;;;;;;;;;5050207;28;20024;-65
2022/11/10 14:28:31;;;;;;;8.75;3.05;;;;;;;;;;5067130;28;20035;-66
2022/11/10 14:30:57;;;;;;;9.02;3.35;;;;;;;;;;5074956;28;20032;-66
2022/11/10 14:33:24;;;;;;;9.07;3.38;;;;;;;;;;5058417;28;20029;-65
2022/11/10 14:36:11;;;;;;;9.70;3.42;;;;;;;;;;5054328;28;20021;-67
2022/11/10 14:38:43;;;;;;;10.70;3.15;;;;;;;;;;5054809;28;20032;-67
2022/11/10 14:41:16;;;;;;;9.15;3.67;;;;;;;;;;5054650;28;20049;-67
2022/11/10 14:43:42;;;;;;;9.15;3.55;;;;;;;;;;5054540;28;20387;-66
2022/11/10 14:46:13;;;;;;;14.20;4.07;;;;;;;;;;5054513;28;20025;-68
2022/11/10 14:48:39;;;;;;;14.35;4.50;;;;;;;;;;5054530;28;20082;-67
2022/11/10 14:51:11;;;;;;;8.27;3.53;;;;;;;;;;5061912;28;20033;-68
2022/11/10 14:53:39;;;;;;;13.15;3.72;;;;;;;;;;5074288;28;20032;-66
2022/11/10 14:56:13;;;;;;;8.02;3.53;;;;;;;;;;5072873;28;20020;-67
2022/11/10 14:58:41;;;;;;;12.23;3.95;;;;;;;;;;5074330;28;20024;-68
2022/11/10 15:01:22;;;;;;;7.90;3.50;;;;;;;;;;5074058;28;20119;-67
2022/11/10 15:03:48;;;;;;;9.35;3.45;;;;;;;;;;5074296;28;20029;-67
2022/11/10 15:06:14;;;;;;;10.20;3.97;;;;;;;;;;5073526;28;20427;-65
2022/11/10 15:08:41;;;;;;;13.23;3.78;;;;;;;;;;5073584;28;20475;-68
2022/11/10 15:11:26;;;;;;;13.10;4.43;;;;;;;;;;5074164;28;20025;-67
2022/11/10 15:13:52;;;;;;;10.55;3.60;;;;;;;;;;5074013;28;20431;-67